createdAt,value
2019-05-17T00:08:47.300Z,10.63
2019-05-17T00:18:51.456Z,11.40
2019-05-17T00:28:56.259Z,10.10
2019-05-17T00:38:59.313Z,9.40
2019-05-17T00:49:06.344Z,11.03
2019-05-17T00:59:08.401Z,12.77
2019-05-17T01:09:11.942Z,11.33
2019-05-17T01:19:16.420Z,13.20
2019-05-17T01:29:19.179Z,15.37
2019-05-17T01:39:23.247Z,12.83
2019-05-17T01:49:27.514Z,14.10
2019-05-17T01:59:30.069Z,15.17
2019-05-17T02:09:37.957Z,12.80
2019-05-17T02:19:38.857Z,14.67
2019-05-17T02:29:42.460Z,12.93
2019-05-17T02:39:58.229Z,11.90
2019-05-17T02:49:54.305Z,10.73
2019-05-17T02:59:56.900Z,15.30
2019-05-17T03:10:18.234Z,12.50
2019-05-17T03:20:08.534Z,13.97
2019-05-17T03:30:17.039Z,12.97
2019-05-17T03:40:46.344Z,12.73
2019-05-17T03:50:29.322Z,13.90
2019-05-17T04:00:35.295Z,11.67
2019-05-17T04:10:37.942Z,13.30
2019-05-17T04:20:43.325Z,20.77
2019-05-17T04:30:46.082Z,16.83
2019-05-17T04:40:49.455Z,16.50
2019-05-17T04:50:53.601Z,14.80
2019-05-17T05:00:58.050Z,15.43
2019-05-17T05:11:04.176Z,17.40
2019-05-17T05:21:08.513Z,21.40
2019-05-17T05:31:13.119Z,15.77
2019-05-17T05:41:17.156Z,20.20
2019-05-17T05:51:21.649Z,17.13
2019-05-17T06:01:25.241Z,15.97
2019-05-17T06:11:27.814Z,14.53
2019-05-17T06:21:31.941Z,13.70
2019-05-17T06:31:36.993Z,12.57
2019-05-17T06:41:41.707Z,13.17
2019-05-17T06:51:45.549Z,15.97
2019-05-17T07:01:50.274Z,10.83
2019-05-17T07:11:59.602Z,14.53
2019-05-17T07:22:05.151Z,11.23
2019-05-17T07:32:09.830Z,9.80
2019-05-17T07:42:14.001Z,9.10
2019-05-17T07:52:17.343Z,18.60
2019-05-17T08:02:20.702Z,11.93
2019-05-17T08:12:24.446Z,10.70
2019-05-17T08:22:29.382Z,10.53
2019-05-17T08:32:32.987Z,11.77
2019-05-17T08:42:35.585Z,14.77
2019-05-17T08:52:40.312Z,14.53
2019-05-17T09:02:44.723Z,19.63
2019-05-17T09:12:50.086Z,17.07
2019-05-17T09:22:52.536Z,13.20
2019-05-17T09:32:56.969Z,17.03
2019-05-17T09:43:00.645Z,15.40
2019-05-17T09:53:10.430Z,15.40
2019-05-17T10:03:13.329Z,20.63
2019-05-17T10:13:20.107Z,15.90
2019-05-17T10:23:23.290Z,14.97
2019-05-17T10:33:26.642Z,15.20
2019-05-17T10:43:31.711Z,11.83
2019-05-17T10:53:34.284Z,13.87
2019-05-17T11:03:39.732Z,11.67
2019-05-17T11:13:43.082Z,11.80
2019-05-17T11:23:47.286Z,13.60
2019-05-17T11:33:49.867Z,11.53
2019-05-17T11:43:52.519Z,11.73
2019-05-17T11:53:56.994Z,8.83
2019-05-17T12:04:02.291Z,13.33
2019-05-17T12:14:07.480Z,12.03
2019-05-17T12:24:10.050Z,15.23
2019-05-17T12:34:12.615Z,15.43
2019-05-17T12:44:15.177Z,11.33
2019-05-17T12:54:17.754Z,10.30
2019-05-17T13:04:20.335Z,11.60
2019-05-17T13:14:27.625Z,11.93
2019-05-17T13:24:34.272Z,10.23
2019-05-17T13:34:40.211Z,21.13
2019-05-17T13:44:45.805Z,9.43
2019-05-17T13:54:49.586Z,7.70
2019-05-17T14:04:54.481Z,8.93
2019-05-17T14:14:58.449Z,17.63
2019-05-17T14:25:01.810Z,10.97
2019-05-17T14:35:06.577Z,19.37
2019-05-17T14:45:12.388Z,5.53
2019-05-17T14:55:16.452Z,11.17
2019-05-17T15:05:19.182Z,9.73
2019-05-17T15:15:26.745Z,10.10
2019-05-17T15:25:30.450Z,13.40
2019-05-17T15:35:33.787Z,12.73
2019-05-17T15:45:37.114Z,11.93
2019-05-17T15:55:41.651Z,20.97
2019-05-17T16:05:48.776Z,19.87
2019-05-17T16:15:52.938Z,14.47
2019-05-17T16:25:56.224Z,9.80
2019-05-17T16:35:59.117Z,12.97
2019-05-17T16:46:06.966Z,9.70
2019-05-17T16:56:09.655Z,9.87
2019-05-17T17:06:12.971Z,9.50
2019-05-17T17:16:18.060Z,6.70
2019-05-17T17:26:21.324Z,6.73
2019-05-17T17:36:24.217Z,11.60
2019-05-17T17:46:27.563Z,11.47
2019-05-17T17:56:32.486Z,12.73
2019-05-17T18:06:35.654Z,17.90
2019-05-17T18:16:38.225Z,14.20
2019-05-17T18:26:41.054Z,19.07
2019-05-17T18:36:43.676Z,25.93
2019-05-17T18:46:51.228Z,23.47
2019-05-17T18:56:54.008Z,25.50
2019-05-17T19:06:57.612Z,21.90
2019-05-17T19:17:02.470Z,15.97
2019-05-17T19:27:08.066Z,11.47
2019-05-17T19:37:10.647Z,18.60
2019-05-17T19:47:14.786Z,16.40
2019-05-17T19:57:19.871Z,20.93
2019-05-17T20:07:23.939Z,15.53
2019-05-17T20:17:28.678Z,15.73
2019-05-17T20:27:31.993Z,19.43
2019-05-17T20:37:34.577Z,14.73
2019-05-17T20:47:37.680Z,25.47
2019-05-17T20:57:41.125Z,24.10
2019-05-17T21:07:44.799Z,24.50
2019-05-17T21:17:49.130Z,18.93
2019-05-17T21:27:54.157Z,25.23
2019-05-17T21:37:57.480Z,22.43
2019-05-17T21:48:00.510Z,22.83
2019-05-17T21:58:05.012Z,34.43
2019-05-17T22:08:08.448Z,32.20
2019-05-17T22:18:11.012Z,23.87
2019-05-17T22:28:14.641Z,31.70
2019-05-17T22:38:18.153Z,23.97
2019-05-17T22:48:20.847Z,28.73
2019-05-17T22:58:24.002Z,35.03
2019-05-17T23:08:27.426Z,27.50
2019-05-17T23:18:34.103Z,33.53
2019-05-17T23:28:36.669Z,30.43
2019-05-17T23:38:39.541Z,26.47
2019-05-17T23:48:44.478Z,21.30
2019-05-17T23:58:48.547Z,21.67
